createdAt,value
2022-11-10T00:02:44.316Z,10.27
2022-11-10T00:05:30.417Z,10.29
2022-11-10T00:08:15.501Z,10.29
2022-11-10T00:11:06.868Z,10.29
2022-11-10T00:14:10.400Z,10.30
2022-11-10T00:17:02.048Z,10.29
2022-11-10T00:19:47.168Z,10.29
2022-11-10T00:22:34.309Z,10.33
2022-11-10T00:25:19.677Z,10.29
2022-11-10T00:28:05.028Z,10.29
2022-11-10T00:30:50.518Z,10.29
2022-11-10T00:33:37.916Z,10.31
2022-11-10T00:36:24.237Z,10.30
2022-11-10T00:39:10.306Z,10.33
2022-11-10T00:41:55.756Z,10.34
2022-11-10T00:44:41.312Z,10.35
2022-11-10T00:47:26.924Z,10.31
2022-11-10T00:50:12.788Z,10.31
2022-11-10T00:52:58.325Z,10.29
2022-11-10T00:55:43.963Z,10.29
2022-11-10T00:58:29.763Z,10.28
2022-11-10T01:01:16.872Z,10.30
2022-11-10T01:04:02.440Z,10.29
2022-11-10T01:06:48.381Z,10.30
2022-11-10T01:09:33.901Z,10.30
2022-11-10T01:12:19.298Z,10.33
2022-11-10T01:15:06.210Z,10.34
2022-11-10T01:17:52.145Z,10.33
2022-11-10T01:20:37.884Z,10.33
2022-11-10T01:23:23.618Z,10.35
2022-11-10T01:26:09.774Z,10.34
2022-11-10T01:28:55.258Z,10.34
2022-11-10T01:31:40.653Z,10.31
2022-11-10T01:34:26.157Z,10.33
2022-11-10T01:37:14.750Z,10.36
2022-11-10T01:40:00.474Z,10.37
2022-11-10T01:42:55.035Z,10.39
2022-11-10T01:45:54.611Z,10.40
2022-11-10T01:48:57.413Z,10.41
2022-11-10T01:51:46.953Z,10.41
2022-11-10T01:54:41.185Z,10.43
2022-11-10T01:57:26.229Z,10.40
2022-11-10T02:00:12.287Z,10.41
2022-11-10T02:03:03.461Z,10.41
2022-11-10T02:05:49.484Z,10.41
2022-11-10T02:08:35.378Z,10.41
2022-11-10T02:11:21.940Z,10.44
2022-11-10T02:14:07.928Z,10.45
2022-11-10T02:16:53.098Z,10.45
2022-11-10T02:19:42.301Z,10.44
2022-11-10T02:22:28.030Z,10.43
2022-11-10T02:25:19.502Z,10.43
2022-11-10T02:28:05.186Z,10.44
2022-11-10T02:30:51.145Z,10.43
2022-11-10T02:33:37.205Z,10.43
2022-11-10T02:36:22.610Z,10.44
2022-11-10T02:39:08.032Z,10.46
2022-11-10T02:41:53.274Z,10.46
2022-11-10T02:44:42.032Z,10.45
2022-11-10T02:47:27.628Z,10.46
2022-11-10T02:50:13.156Z,10.48
2022-11-10T02:52:58.530Z,10.46
2022-11-10T02:55:43.825Z,10.45
2022-11-10T02:58:29.159Z,10.48
2022-11-10T03:01:14.631Z,10.50
2022-11-10T03:03:59.954Z,10.50
2022-11-10T03:06:45.376Z,10.51
2022-11-10T03:09:30.905Z,10.51
2022-11-10T03:12:16.873Z,10.54
2022-11-10T03:15:01.961Z,10.52
2022-11-10T03:17:47.399Z,10.53
2022-11-10T03:20:32.912Z,10.55
2022-11-10T03:23:20.245Z,10.54
2022-11-10T03:26:07.137Z,10.54
2022-11-10T03:28:52.816Z,10.55
2022-11-10T03:31:38.323Z,10.55
2022-11-10T03:34:26.054Z,10.55
2022-11-10T03:37:14.774Z,10.57
2022-11-10T03:40:00.154Z,10.57
2022-11-10T03:42:46.254Z,10.58
2022-11-10T03:45:31.409Z,10.62
2022-11-10T03:48:16.962Z,10.62
2022-11-10T03:51:02.306Z,10.62
2022-11-10T03:53:47.708Z,10.60
2022-11-10T03:56:33.252Z,10.62
2022-11-10T03:59:18.568Z,10.64
2022-11-10T04:02:04.144Z,10.65
2022-11-10T04:05:24.614Z,10.67
2022-11-10T04:08:34.952Z,10.67
2022-11-10T04:11:39.242Z,10.68
2022-11-10T04:14:42.930Z,10.72
2022-11-10T04:17:28.477Z,10.70
2022-11-10T04:20:13.790Z,10.70
2022-11-10T04:23:17.464Z,10.71
2022-11-10T04:26:25.048Z,10.72
2022-11-10T04:29:11.908Z,10.73
2022-11-10T04:31:57.200Z,10.73
2022-11-10T04:34:42.636Z,10.75
2022-11-10T04:37:27.916Z,10.77
2022-11-10T04:40:13.255Z,10.80
2022-11-10T04:42:58.721Z,10.80
2022-11-10T04:45:44.063Z,10.80
2022-11-10T04:48:29.897Z,10.81
2022-11-10T04:51:16.544Z,10.79
2022-11-10T04:54:02.711Z,10.84
2022-11-10T04:56:48.232Z,10.83
2022-11-10T04:59:33.560Z,10.82
2022-11-10T05:02:18.885Z,10.82
2022-11-10T05:05:04.889Z,10.84
2022-11-10T05:07:50.131Z,10.84
2022-11-10T05:10:37.301Z,10.85
2022-11-10T05:13:23.068Z,10.86
2022-11-10T05:16:09.843Z,10.88
2022-11-10T05:18:56.176Z,10.88
2022-11-10T05:21:41.243Z,10.87
2022-11-10T05:24:26.548Z,10.87
2022-11-10T05:27:12.065Z,10.87
2022-11-10T05:29:57.161Z,10.87
2022-11-10T05:32:42.520Z,10.88
2022-11-10T05:35:27.806Z,10.88
2022-11-10T05:38:13.299Z,10.89
2022-11-10T05:40:59.019Z,10.88
2022-11-10T05:43:44.706Z,10.90
2022-11-10T05:46:31.918Z,10.93
2022-11-10T05:49:17.088Z,10.92
2022-11-10T05:52:02.565Z,10.92
2022-11-10T05:54:47.988Z,10.93
2022-11-10T05:57:33.786Z,10.93
2022-11-10T06:00:21.920Z,10.96
2022-11-10T06:03:16.233Z,10.95
2022-11-10T06:06:01.853Z,10.96
2022-11-10T06:08:47.078Z,10.95
2022-11-10T06:11:32.416Z,10.94
2022-11-10T06:14:17.657Z,10.94
2022-11-10T06:17:03.024Z,10.95
2022-11-10T06:19:48.334Z,10.96
2022-11-10T06:22:34.169Z,10.95
2022-11-10T06:25:19.882Z,10.96
2022-11-10T06:28:06.466Z,10.96
2022-11-10T06:30:51.496Z,10.96
2022-11-10T06:33:36.885Z,10.95
2022-11-10T06:36:22.817Z,10.95
2022-11-10T06:39:08.242Z,10.95
2022-11-10T06:41:53.591Z,10.94
2022-11-10T06:44:39.117Z,10.95
2022-11-10T06:47:24.583Z,10.93
2022-11-10T06:50:10.188Z,10.93
2022-11-10T06:52:59.680Z,10.95
2022-11-10T06:55:45.390Z,10.97
2022-11-10T06:58:30.732Z,10.99
2022-11-10T07:01:21.282Z,10.97
2022-11-10T07:04:19.834Z,10.96
2022-11-10T07:07:06.052Z,10.97
2022-11-10T07:09:51.354Z,10.97
2022-11-10T07:12:36.731Z,10.96
2022-11-10T07:15:22.198Z,10.97
2022-11-10T07:18:07.951Z,10.98
2022-11-10T07:20:52.976Z,10.98
2022-11-10T07:23:38.502Z,10.99
2022-11-10T07:26:23.613Z,10.99
2022-11-10T07:29:09.073Z,10.98
2022-11-10T07:31:54.322Z,10.97
2022-11-10T07:34:39.805Z,10.98
2022-11-10T07:37:25.175Z,10.98
2022-11-10T07:40:11.063Z,10.99
2022-11-10T07:42:56.424Z,11.00
2022-11-10T07:45:41.836Z,11.01
2022-11-10T07:48:27.228Z,11.01
2022-11-10T07:51:12.689Z,11.01
2022-11-10T07:53:57.992Z,11.03
2022-11-10T07:56:43.883Z,11.04
2022-11-10T07:59:29.169Z,11.07
2022-11-10T08:02:14.597Z,11.08
2022-11-10T08:05:00.148Z,11.10
2022-11-10T08:07:45.595Z,11.29
2022-11-10T08:10:32.538Z,11.23
2022-11-10T08:13:18.026Z,11.19
2022-11-10T08:16:03.448Z,11.15
2022-11-10T08:18:49.141Z,11.13
2022-11-10T08:21:34.804Z,11.12
2022-11-10T08:24:20.285Z,11.12
2022-11-10T08:27:06.381Z,11.15
2022-11-10T08:29:51.719Z,11.15
2022-11-10T08:32:37.118Z,11.17
2022-11-10T08:35:23.781Z,11.17
2022-11-10T08:38:13.256Z,11.20
2022-11-10T08:40:58.976Z,11.22
2022-11-10T08:43:44.308Z,11.20
2022-11-10T08:46:30.148Z,11.22
2022-11-10T08:49:15.523Z,11.25
2022-11-10T08:52:01.052Z,11.28
2022-11-10T08:54:46.291Z,11.30
2022-11-10T08:57:31.769Z,11.30
2022-11-10T09:00:17.760Z,11.29
2022-11-10T09:03:18.932Z,11.29
2022-11-10T09:06:04.762Z,11.30
2022-11-10T09:08:50.230Z,11.31
2022-11-10T09:11:35.485Z,11.33
2022-11-10T09:14:21.241Z,11.34
2022-11-10T09:17:06.404Z,11.38
2022-11-10T09:19:51.752Z,11.37
2022-11-10T09:22:37.251Z,11.37
2022-11-10T09:25:23.581Z,11.40
2022-11-10T09:28:14.165Z,11.41
2022-11-10T09:31:00.229Z,11.43
2022-11-10T09:33:45.597Z,11.45
2022-11-10T09:36:31.000Z,11.42
2022-11-10T09:39:16.488Z,11.42
2022-11-10T09:42:02.081Z,11.43
2022-11-10T09:44:54.696Z,11.43
2022-11-10T09:48:06.936Z,11.44
2022-11-10T09:51:09.952Z,11.46
2022-11-10T09:54:02.931Z,11.48
2022-11-10T09:56:50.310Z,11.52
2022-11-10T09:59:36.926Z,11.52
2022-11-10T10:02:35.403Z,11.53
2022-11-10T10:05:44.477Z,11.53
2022-11-10T10:09:14.699Z,11.56
2022-11-10T10:12:24.668Z,11.56
2022-11-10T10:15:18.357Z,11.53
2022-11-10T10:18:28.537Z,11.56
2022-11-10T10:21:51.493Z,11.59
2022-11-10T10:24:38.224Z,11.59
2022-11-10T10:27:26.535Z,11.59
2022-11-10T10:30:20.222Z,11.60
2022-11-10T10:33:18.382Z,11.61
2022-11-10T10:36:15.220Z,11.67
2022-11-10T10:39:08.046Z,11.68
2022-11-10T10:41:53.304Z,11.68
2022-11-10T10:44:38.388Z,11.68
2022-11-10T10:47:37.086Z,11.71
2022-11-10T10:50:30.111Z,11.69
2022-11-10T10:53:24.263Z,11.70
2022-11-10T10:56:20.420Z,11.73
2022-11-10T10:59:06.000Z,11.74
2022-11-10T11:01:54.710Z,11.76
2022-11-10T11:04:39.959Z,11.78
2022-11-10T11:07:26.076Z,11.81
2022-11-10T11:10:30.885Z,11.85
2022-11-10T11:13:27.760Z,11.86
2022-11-10T11:16:13.305Z,11.89
2022-11-10T11:18:58.985Z,11.91
2022-11-10T11:21:52.892Z,11.92
2022-11-10T11:24:46.163Z,11.94
2022-11-10T11:27:47.412Z,11.94
2022-11-10T11:30:54.651Z,11.97
2022-11-10T11:33:52.285Z,11.97
2022-11-10T11:36:40.656Z,11.98
2022-11-10T11:39:31.840Z,12.00
2022-11-10T11:42:17.193Z,12.08
2022-11-10T11:45:14.698Z,12.07
2022-11-10T11:48:34.666Z,12.11
2022-11-10T11:51:39.666Z,12.07
2022-11-10T11:54:40.846Z,12.07
2022-11-10T11:57:57.157Z,12.08
2022-11-10T12:01:01.660Z,12.05
2022-11-10T12:03:56.135Z,12.10
2022-11-10T12:07:05.664Z,12.12
2022-11-10T12:10:14.984Z,12.14
2022-11-10T12:13:12.308Z,12.17
2022-11-10T12:16:05.122Z,12.18
2022-11-10T12:19:08.745Z,12.15
2022-11-10T12:22:18.793Z,12.16
2022-11-10T12:25:38.781Z,12.21
2022-11-10T12:28:25.908Z,12.21
2022-11-10T12:31:26.015Z,12.20
2022-11-10T12:34:24.473Z,12.16
2022-11-10T12:37:22.279Z,12.20
2022-11-10T12:40:17.984Z,12.25
2022-11-10T12:43:10.006Z,12.29
2022-11-10T12:46:00.091Z,12.33
2022-11-10T12:49:07.131Z,12.30
2022-11-10T12:52:23.017Z,12.34
2022-11-10T12:55:13.756Z,12.35
2022-11-10T12:58:01.429Z,12.34
2022-11-10T13:01:00.973Z,12.36
2022-11-10T13:03:59.228Z,12.38
2022-11-10T13:07:00.587Z,12.35
2022-11-10T13:09:46.367Z,12.32
2022-11-10T13:12:31.593Z,12.35
2022-11-10T13:15:35.718Z,12.35
2022-11-10T13:18:30.477Z,12.36
2022-11-10T13:21:15.979Z,12.43
2022-11-10T13:24:02.659Z,12.43
2022-11-10T13:26:54.176Z,12.46
2022-11-10T13:29:45.634Z,12.47
2022-11-10T13:32:33.635Z,12.48
2022-11-10T13:35:28.612Z,12.56
2022-11-10T13:38:32.281Z,12.57
2022-11-10T13:41:17.805Z,12.55
2022-11-10T13:44:03.352Z,12.57
2022-11-10T13:47:10.144Z,12.61
2022-11-10T13:50:01.755Z,12.56
2022-11-10T13:53:15.425Z,12.53
2022-11-10T13:56:00.661Z,12.57
2022-11-10T13:58:46.454Z,12.58
2022-11-10T14:01:32.172Z,12.59
2022-11-10T14:04:45.173Z,12.56
2022-11-10T14:07:37.922Z,12.57
2022-11-10T14:10:38.737Z,12.59
2022-11-10T14:13:28.199Z,12.58
2022-11-10T14:16:21.091Z,12.63
2022-11-10T14:19:24.736Z,12.60
2022-11-10T14:22:50.018Z,12.63
2022-11-10T14:25:39.892Z,12.64
2022-11-10T14:28:33.944Z,12.63
2022-11-10T14:31:26.468Z,12.60
2022-11-10T14:34:16.994Z,12.62
2022-11-10T14:37:03.492Z,12.67
2022-11-10T14:39:54.687Z,12.67
2022-11-10T14:42:39.966Z,12.71
2022-11-10T14:45:27.549Z,12.70
2022-11-10T14:48:19.053Z,12.73
2022-11-10T14:51:13.157Z,12.71
2022-11-10T14:53:58.568Z,12.72
2022-11-10T14:56:43.970Z,12.70
2022-11-10T14:59:29.603Z,12.71
2022-11-10T15:02:18.917Z,12.73
2022-11-10T15:05:05.304Z,12.77
2022-11-10T15:07:56.622Z,12.77
2022-11-10T15:10:43.660Z,12.78
2022-11-10T15:13:38.184Z,12.74
2022-11-10T15:16:37.495Z,12.76
2022-11-10T15:19:27.498Z,12.76
2022-11-10T15:22:12.755Z,12.74
2022-11-10T15:25:08.513Z,12.69
2022-11-10T15:28:06.418Z,12.73
2022-11-10T15:30:54.363Z,12.82
2022-11-10T15:33:46.685Z,12.84
2022-11-10T15:36:39.737Z,12.82
2022-11-10T15:39:27.180Z,12.82
2022-11-10T15:42:24.505Z,12.82
2022-11-10T15:45:09.918Z,12.77
2022-11-10T15:47:56.217Z,12.76
2022-11-10T15:50:44.016Z,12.81
2022-11-10T15:53:37.467Z,12.84
2022-11-10T15:56:24.806Z,12.88
2022-11-10T15:59:11.233Z,12.88
2022-11-10T16:01:56.928Z,12.88
2022-11-10T16:04:42.659Z,12.93
2022-11-10T16:07:28.032Z,12.92
2022-11-10T16:10:13.472Z,12.90
2022-11-10T16:12:58.794Z,12.89
2022-11-10T16:15:47.497Z,12.89
2022-11-10T16:18:32.919Z,12.90
2022-11-10T16:21:21.522Z,12.89
2022-11-10T16:24:06.978Z,12.90
2022-11-10T16:26:52.700Z,12.89
2022-11-10T16:29:38.488Z,12.89
2022-11-10T16:32:24.554Z,12.89
2022-11-10T16:35:13.942Z,12.88
2022-11-10T16:37:59.412Z,12.88
2022-11-10T16:40:45.706Z,12.89
2022-11-10T16:43:31.767Z,12.89
2022-11-10T16:46:23.365Z,12.88
2022-11-10T16:49:26.475Z,12.90
2022-11-10T16:52:14.960Z,12.91
2022-11-10T16:55:00.602Z,12.91
2022-11-10T16:57:46.048Z,12.89
2022-11-10T17:00:32.201Z,12.91
2022-11-10T17:03:24.656Z,12.93
2022-11-10T17:06:13.608Z,12.94
2022-11-10T17:09:07.830Z,12.92
2022-11-10T17:11:53.440Z,12.91
2022-11-10T17:14:38.809Z,12.88
2022-11-10T17:17:24.852Z,12.91
2022-11-10T17:20:37.965Z,12.91
2022-11-10T17:23:25.487Z,12.92
2022-11-10T17:26:14.249Z,12.92
2022-11-10T17:28:59.496Z,12.95
2022-11-10T17:31:45.519Z,12.96
2022-11-10T17:34:31.197Z,12.93
2022-11-10T17:37:17.520Z,12.94
2022-11-10T17:40:24.070Z,12.96
2022-11-10T17:43:12.302Z,12.97
2022-11-10T17:45:57.714Z,12.99
2022-11-10T17:48:43.648Z,13.01
2022-11-10T17:51:33.284Z,12.99
2022-11-10T17:54:18.408Z,12.97
2022-11-10T17:57:04.547Z,13.00
2022-11-10T17:59:50.320Z,13.18
2022-11-10T18:02:36.004Z,13.19
2022-11-10T18:05:21.790Z,13.16
2022-11-10T18:08:07.564Z,13.12
2022-11-10T18:10:53.267Z,13.10
2022-11-10T18:13:40.294Z,13.09
2022-11-10T18:16:25.879Z,13.09
2022-11-10T18:19:11.477Z,13.10
2022-11-10T18:21:56.837Z,13.10
2022-11-10T18:24:42.633Z,13.11
2022-11-10T18:27:28.683Z,13.11
2022-11-10T18:30:14.837Z,13.11
2022-11-10T18:33:04.376Z,13.12
2022-11-10T18:35:49.990Z,13.14
2022-11-10T18:38:35.968Z,13.12
2022-11-10T18:41:39.606Z,13.14
2022-11-10T18:44:24.975Z,13.12
2022-11-10T18:47:12.372Z,13.12
2022-11-10T18:49:58.035Z,13.12
2022-11-10T18:52:43.957Z,13.11
2022-11-10T18:55:29.112Z,13.11
2022-11-10T18:58:14.373Z,13.14
2022-11-10T19:01:07.836Z,13.18
2022-11-10T19:03:53.689Z,13.18
2022-11-10T19:06:39.474Z,13.21
2022-11-10T19:09:24.704Z,13.21
2022-11-10T19:12:11.096Z,13.22
2022-11-10T19:14:56.688Z,13.23
2022-11-10T19:17:42.219Z,13.21
2022-11-10T19:20:27.709Z,13.21
2022-11-10T19:23:13.817Z,13.22
2022-11-10T19:26:22.919Z,13.22
2022-11-10T19:29:08.388Z,13.22
2022-11-10T19:31:53.868Z,13.22
2022-11-10T19:34:39.257Z,13.23
2022-11-10T19:37:24.649Z,13.23
2022-11-10T19:40:10.630Z,13.24
2022-11-10T19:42:56.418Z,13.27
2022-11-10T19:45:42.302Z,13.33
2022-11-10T19:48:27.716Z,13.34
2022-11-10T19:51:15.073Z,13.33
2022-11-10T19:54:02.688Z,13.33
2022-11-10T19:56:47.844Z,13.35
2022-11-10T19:59:33.556Z,13.33
2022-11-10T20:02:18.947Z,13.32
2022-11-10T20:05:13.899Z,13.33
2022-11-10T20:08:11.101Z,13.36
2022-11-10T20:11:09.420Z,13.39
2022-11-10T20:13:57.298Z,13.39
2022-11-10T20:16:42.675Z,13.36
2022-11-10T20:19:28.127Z,13.33
2022-11-10T20:22:13.691Z,13.37
2022-11-10T20:24:59.296Z,13.32
2022-11-10T20:27:45.104Z,13.33
2022-11-10T20:30:30.845Z,13.34
2022-11-10T20:33:16.199Z,13.38
2022-11-10T20:36:17.443Z,13.40
2022-11-10T20:39:05.668Z,13.40
2022-11-10T20:41:52.648Z,13.39
2022-11-10T20:44:38.013Z,13.39
2022-11-10T20:47:23.307Z,13.40
2022-11-10T20:50:14.807Z,13.39
2022-11-10T20:53:01.610Z,13.41
2022-11-10T20:55:54.654Z,13.38
2022-11-10T20:58:41.349Z,13.39
2022-11-10T21:01:27.957Z,13.39
2022-11-10T21:04:13.444Z,13.36
2022-11-10T21:06:59.331Z,13.36
2022-11-10T21:09:44.956Z,13.36
2022-11-10T21:12:48.829Z,13.40
2022-11-10T21:15:38.666Z,13.41
2022-11-10T21:18:36.064Z,13.44
2022-11-10T21:21:23.902Z,13.44
2022-11-10T21:24:09.904Z,13.47
2022-11-10T21:26:56.261Z,13.47
2022-11-10T21:29:42.429Z,13.47
2022-11-10T21:32:28.411Z,13.46
2022-11-10T21:35:14.008Z,13.49
2022-11-10T21:37:59.289Z,13.52
2022-11-10T21:40:44.794Z,13.52
2022-11-10T21:43:31.464Z,13.53
2022-11-10T21:46:17.050Z,13.53
2022-11-10T21:49:07.342Z,13.53
2022-11-10T21:51:53.690Z,13.53
2022-11-10T21:54:39.157Z,13.54
2022-11-10T21:57:25.062Z,13.55
2022-11-10T22:00:12.047Z,13.60
2022-11-10T22:03:02.313Z,13.59
2022-11-10T22:05:47.818Z,13.60
2022-11-10T22:08:34.156Z,13.64
2022-11-10T22:11:39.948Z,13.64
2022-11-10T22:14:43.636Z,13.63
2022-11-10T22:17:47.533Z,13.66
2022-11-10T22:20:32.864Z,13.64
2022-11-10T22:23:18.613Z,13.66
2022-11-10T22:26:03.927Z,13.64
2022-11-10T22:28:49.257Z,13.63
2022-11-10T22:31:34.560Z,13.64
2022-11-10T22:34:20.718Z,13.68
2022-11-10T22:37:06.661Z,13.68
2022-11-10T22:40:10.402Z,13.69
2022-11-10T22:43:14.232Z,13.73
2022-11-10T22:45:59.696Z,13.67
2022-11-10T22:48:45.000Z,13.68
2022-11-10T22:51:31.871Z,13.67
2022-11-10T22:54:19.587Z,13.66
2022-11-10T22:57:05.520Z,13.66
2022-11-10T22:59:51.050Z,13.67
2022-11-10T23:02:37.189Z,13.70
2022-11-10T23:05:22.801Z,13.71
2022-11-10T23:08:08.348Z,13.70
2022-11-10T23:11:06.144Z,13.69
2022-11-10T23:13:52.153Z,13.69
2022-11-10T23:16:37.524Z,13.69
2022-11-10T23:19:22.913Z,13.69
2022-11-10T23:22:08.352Z,13.70
2022-11-10T23:24:57.060Z,13.69
2022-11-10T23:27:42.789Z,13.66
2022-11-10T23:30:28.342Z,13.70
2022-11-10T23:33:13.821Z,13.71
2022-11-10T23:35:59.424Z,13.71
2022-11-10T23:38:47.132Z,13.71
2022-11-10T23:41:32.361Z,13.71
2022-11-10T23:44:17.849Z,13.70
2022-11-10T23:47:02.976Z,13.71
2022-11-10T23:49:48.600Z,13.69
2022-11-10T23:52:34.164Z,13.68
2022-11-10T23:55:19.993Z,13.70
2022-11-10T23:58:05.549Z,13.67
